Time;durP1;ratioP1;P1;durP2;ratioP2;P2;SDS_P1;SDS_P2;PMS_P1;PMS_P2;Temp;Humidity;BMP_temperature;BMP_pressure;BME280_temperature;BME280_humidity;BME280_pressure;Samples;Min_cycle;Max_cycle;Signal;HPM_P1;HPM_P2
2023/05/17 00:03:01;;;;;;;24.53;5.00;;;;;;;5.72;100.00;102358.13;5476335;22;20132;-88
2023/05/17 00:05:44;;;;;;;19.73;4.97;;;;;;;5.47;100.00;102325.72;5062449;28;20036;-88
2023/05/17 00:08:10;;;;;;;13.37;3.50;;;;;;;5.44;100.00;102312.78;5035859;28;20168;-89
2023/05/17 00:10:35;;;;;;;19.13;4.47;;;;;;;5.52;100.00;102333.94;5033431;28;20299;-87
2023/05/17 00:13:01;;;;;;;18.57;4.20;;;;;;;5.64;100.00;102360.06;5049701;28;20469;-88
2023/05/17 00:15:26;;;;;;;16.13;4.50;;;;;;;5.57;100.00;102355.47;5051105;28;20294;-89
2023/05/17 00:17:52;;;;;;;13.82;4.07;;;;;;;5.57;100.00;102362.63;5050803;28;20021;-88
2023/05/17 00:20:17;;;;;;;16.10;3.80;;;;;;;5.60;100.00;102367.56;5049511;28;20025;-88
2023/05/17 00:22:44;;;;;;;15.70;4.43;;;;;;;5.57;100.00;102354.66;5046952;28;20013;-88
2023/05/17 00:25:10;;;;;;;20.58;4.18;;;;;;;5.58;100.00;102359.78;5038467;28;20516;-88
2023/05/17 00:27:35;;;;;;;18.13;3.90;;;;;;;5.55;100.00;102354.84;5050579;28;20028;-88
2023/05/17 00:30:00;;;;;;;11.63;3.80;;;;;;;5.55;100.00;102359.34;5048782;28;20063;-88
2023/05/17 00:32:26;;;;;;;14.17;3.53;;;;;;;5.54;100.00;102355.84;5043228;28;20469;-88
2023/05/17 00:34:54;;;;;;;11.50;3.60;;;;;;;5.50;100.00;102359.88;5030308;28;20837;-89
2023/05/17 00:37:19;;;;;;;11.73;3.03;;;;;;;5.46;100.00;102356.78;5045141;28;20621;-88
2023/05/17 00:39:44;;;;;;;9.77;3.27;;;;;;;5.44;100.00;102358.81;5049017;28;20053;-88
2023/05/17 00:42:10;;;;;;;9.80;3.33;;;;;;;5.43;100.00;102354.50;5045430;28;20124;-88
2023/05/17 00:44:35;;;;;;;14.10;3.80;;;;;;;5.41;100.00;102348.53;5031271;28;20358;-88
2023/05/17 00:47:01;;;;;;;18.50;3.90;;;;;;;5.40;100.00;102348.72;5041630;28;20697;-88
2023/05/17 00:49:27;;;;;;;17.50;3.77;;;;;;;5.36;100.00;102344.78;5050001;28;20028;-89
2023/05/17 00:51:53;;;;;;;16.00;3.47;;;;;;;5.30;100.00;102352.47;5048753;28;20287;-88
2023/05/17 00:54:19;;;;;;;16.50;3.95;;;;;;;5.29;100.00;102356.19;5048668;28;20115;-88
2023/05/17 00:56:44;;;;;;;16.73;3.90;;;;;;;5.26;100.00;102350.38;5037623;28;20017;-88
2023/05/17 00:59:12;;;;;;;18.97;3.33;;;;;;;5.22;100.00;102357.91;5050313;28;20033;-88
2023/05/17 01:01:40;;;;;;;17.40;3.53;;;;;;;5.22;100.00;102352.59;5031558;28;20029;-88
2023/05/17 01:04:06;;;;;;;12.50;3.40;;;;;;;5.20;100.00;102349.28;5031465;28;20025;-88
2023/05/17 01:06:32;;;;;;;9.83;3.20;;;;;;;5.22;100.00;102341.97;5049334;28;20078;-88
2023/05/17 01:08:57;;;;;;;12.63;3.53;;;;;;;5.21;100.00;102345.63;5049061;28;20506;-87
2023/05/17 01:11:28;;;;;;;12.93;3.60;;;;;;;5.16;100.00;102348.00;5048589;28;20070;-89
2023/05/17 01:14:01;;;;;;;16.35;3.17;;;;;;;5.07;100.00;102354.44;5043177;28;20033;-88
2023/05/17 01:16:31;;;;;;;12.60;3.20;;;;;;;4.99;100.00;102358.81;5050053;28;20080;-88
2023/05/17 01:19:31;;;;;;;12.95;3.38;;;;;;;4.97;100.00;102342.25;5038421;28;20032;-88
2023/05/17 01:22:13;;;;;;;8.87;3.00;;;;;;;4.93;100.00;102335.63;5031920;28;20034;-87
2023/05/17 01:24:49;;;;;;;20.63;3.77;;;;;;;4.95;100.00;102352.22;5055565;28;20314;-88
2023/05/17 01:27:16;;;;;;;16.70;3.70;;;;;;;4.91;100.00;102353.63;5037531;28;20029;-88
2023/05/17 01:29:43;;;;;;;16.63;3.63;;;;;;;4.87;100.00;102354.13;5046620;28;20029;-87
2023/05/17 01:32:09;;;;;;;10.45;3.70;;;;;;;4.85;100.00;102354.34;5040710;28;20162;-87
2023/05/17 01:34:35;;;;;;;11.70;3.53;;;;;;;4.80;100.00;102356.69;5049484;28;20039;-87
2023/05/17 01:37:00;;;;;;;10.13;3.30;;;;;;;4.80;100.00;102351.38;5040586;28;20021;-88
2023/05/17 01:39:25;;;;;;;12.63;3.93;;;;;;;4.77;100.00;102349.09;5038585;28;20688;-89
2023/05/17 01:42:16;;;;;;;13.10;3.80;;;;;;;4.79;100.00;102342.59;5049189;28;20028;-87
2023/05/17 01:44:53;;;;;;;15.23;3.70;;;;;;;4.82;100.00;102349.38;5045826;28;20639;-87
2023/05/17 01:47:28;;;;;;;14.65;4.30;;;;;;;4.75;100.00;102349.28;5049051;28;20540;-86
2023/05/17 01:49:55;;;;;;;11.88;3.45;;;;;;;4.76;100.00;102347.44;5048255;28;20017;-84
2023/05/17 01:52:28;;;;;;;12.52;3.65;;;;;;;4.74;100.00;102358.25;5044301;28;20076;-86
2023/05/17 01:55:29;;;;;;;12.60;3.97;;;;;;;4.70;100.00;102355.13;5040993;28;20476;-86
2023/05/17 01:57:56;;;;;;;14.23;4.15;;;;;;;4.62;100.00;102343.78;5029991;28;20097;-86
2023/05/17 02:00:24;;;;;;;12.48;3.42;;;;;;;4.68;100.00;102353.66;5030936;28;20087;-87
2023/05/17 02:02:49;;;;;;;12.15;3.22;;;;;;;4.58;100.00;102347.78;5040323;28;20044;-85
2023/05/17 02:05:15;;;;;;;14.00;3.77;;;;;;;4.54;100.00;102356.09;5046300;28;20033;-86
2023/05/17 02:07:40;;;;;;;13.03;3.73;;;;;;;4.52;100.00;102362.63;5048994;28;20033;-86
2023/05/17 02:10:06;;;;;;;12.27;3.33;;;;;;;4.48;100.00;102363.97;5031692;28;20082;-86
2023/05/17 02:12:31;;;;;;;14.43;3.70;;;;;;;4.44;100.00;102357.34;5044364;28;20103;-86
2023/05/17 02:14:56;;;;;;;16.93;4.27;;;;;;;4.40;100.00;102357.72;5046325;28;20064;-86
2023/05/17 02:17:22;;;;;;;13.80;4.00;;;;;;;4.40;100.00;102349.75;5046377;28;20033;-86
2023/05/17 02:19:47;;;;;;;14.57;4.00;;;;;;;4.40;100.00;102356.91;5048024;28;20021;-86
2023/05/17 02:22:12;;;;;;;13.93;3.78;;;;;;;4.42;100.00;102354.06;5047908;28;20028;-86
2023/05/17 02:24:37;;;;;;;7.13;3.50;;;;;;;4.36;100.00;102355.59;5050004;28;20025;-86
2023/05/17 02:27:03;;;;;;;13.27;3.57;;;;;;;4.36;100.00;102356.44;5029589;28;20033;-86
2023/05/17 02:29:28;;;;;;;15.20;3.67;;;;;;;4.36;100.00;102353.78;5048028;28;20052;-85
2023/05/17 02:31:54;;;;;;;13.00;3.83;;;;;;;4.36;100.00;102340.50;5022667;28;20370;-86
2023/05/17 02:34:19;;;;;;;14.75;3.70;;;;;;;4.46;100.00;102350.88;5039964;28;20033;-86
2023/05/17 02:36:44;;;;;;;13.73;3.77;;;;;;;4.52;100.00;102344.84;5045021;28;20029;-85
2023/05/17 02:39:10;;;;;;;11.30;4.20;;;;;;;4.54;100.00;102353.44;5049169;28;20024;-86
2023/05/17 02:41:35;;;;;;;14.37;4.07;;;;;;;4.58;100.00;102369.03;5048567;28;20028;-86
2023/05/17 02:44:00;;;;;;;9.30;3.53;;;;;;;4.57;100.00;102368.19;5032044;28;20498;-86
2023/05/17 02:46:26;;;;;;;12.20;3.83;;;;;;;4.60;100.00;102370.47;5036248;28;20037;-85
2023/05/17 02:48:51;;;;;;;11.47;3.93;;;;;;;4.59;100.00;102368.84;5035103;28;20038;-90
2023/05/17 02:51:16;;;;;;;8.57;3.97;;;;;;;4.72;100.00;102372.72;5043326;28;20028;-89
2023/05/17 02:53:42;;;;;;;9.10;3.67;;;;;;;4.81;100.00;102374.28;5040298;28;20530;-88
2023/05/17 02:56:10;;;;;;;10.83;4.07;;;;;;;4.92;100.00;102363.22;5048824;28;20029;-89
2023/05/17 02:58:36;;;;;;;15.10;3.90;;;;;;;5.06;100.00;102376.69;5053198;28;20480;-88
2023/05/17 03:01:01;;;;;;;12.37;3.97;;;;;;;5.12;100.00;102376.78;5048014;28;20029;-88
2023/05/17 03:03:26;;;;;;;14.83;4.33;;;;;;;5.24;100.00;102377.16;5052108;28;20033;-88
2023/05/17 03:05:52;;;;;;;14.23;4.75;;;;;;;5.37;100.00;102373.88;5052247;28;20040;-88
2023/05/17 03:08:17;;;;;;;13.20;4.33;;;;;;;5.51;100.00;102387.31;5052739;28;20021;-89
2023/05/17 03:10:42;;;;;;;10.30;4.50;;;;;;;5.54;100.00;102379.78;5052047;28;20028;-88
2023/05/17 03:13:08;;;;;;;8.53;4.50;;;;;;;5.58;100.00;102389.03;5040641;28;20032;-90
2023/05/17 03:15:33;;;;;;;13.20;4.30;;;;;;;5.61;100.00;102380.69;5049335;28;20112;-90
2023/05/17 03:17:59;;;;;;;10.82;4.63;;;;;;;5.72;100.00;102391.84;5041796;28;20094;-90
2023/05/17 03:25:54;;;;;;;17.13;4.82;;;;;;;5.63;100.00;102358.41;5853000;22;20045;-88
2023/05/17 03:28:40;;;;;;;20.30;4.82;;;;;;;5.82;100.00;102387.09;5037687;28;20028;-87
2023/05/17 03:31:06;;;;;;;13.65;4.43;;;;;;;5.89;100.00;102393.28;5032678;28;20021;-88
2023/05/17 03:33:31;;;;;;;13.10;4.80;;;;;;;5.82;100.00;102376.44;5042769;28;20082;-88
2023/05/17 03:35:56;;;;;;;16.80;5.47;;;;;;;6.08;100.00;102408.88;5052025;28;20395;-88
2023/05/17 03:38:22;;;;;;;19.23;5.07;;;;;;;6.06;100.00;102409.88;5046434;28;20420;-90
2023/05/17 03:40:47;;;;;;;20.08;4.75;;;;;;;6.09;100.00;102407.88;5050506;28;20063;-88
2023/05/17 03:43:12;;;;;;;22.30;5.77;;;;;;;6.12;100.00;102416.28;5051578;28;20036;-89
2023/05/17 03:45:38;;;;;;;15.10;5.17;;;;;;;6.09;100.00;102411.34;5051356;28;20501;-89
2023/05/17 03:48:04;;;;;;;17.47;5.47;;;;;;;6.10;100.00;102414.84;5052064;28;20032;-88
2023/05/17 04:13:32;;;;;;;17.67;4.80;;;;;;;5.69;100.00;102421.47;5410367;23;20056;-89
2023/05/17 04:22:02;;;;;;;20.77;5.10;;;;;;;5.68;100.00;102412.69;4993522;28;20497;-88
2023/05/17 04:32:26;;;;;;;;;;;;;;;;;;;;;
2023/05/17 04:38:14;;;;;;;21.48;5.07;;;;;;;5.87;100.00;102429.09;4948739;29;20061;-86
2023/05/17 04:54:15;;;;;;;20.27;6.20;;;;;;;6.90;100.00;102474.16;5064921;23;20192;-90
2023/05/17 04:56:41;;;;;;;19.63;6.20;;;;;;;7.52;100.00;102478.88;5049006;28;20108;-92
2023/05/17 04:59:06;;;;;;;18.17;6.03;;;;;;;8.26;100.00;102485.34;5051761;28;20023;-92
2023/05/17 05:01:31;;;;;;;17.23;6.15;;;;;;;8.91;100.00;102486.72;5052846;28;20017;-90
2023/05/17 05:03:57;;;;;;;16.53;6.13;;;;;;;9.59;100.00;102490.94;5049598;28;20035;-92
2023/05/17 05:06:23;;;;;;;13.77;5.15;;;;;;;9.81;100.00;102482.63;5049355;28;20017;-89
2023/05/17 05:08:48;;;;;;;16.97;5.17;;;;;;;9.68;100.00;102488.84;5052644;28;20031;-92
2023/05/17 05:11:14;;;;;;;19.83;5.23;;;;;;;10.13;100.00;102496.13;5047461;28;20033;-89
2023/05/17 05:13:40;;;;;;;17.92;4.80;;;;;;;10.83;100.00;102507.84;5051114;28;20048;-93
2023/05/17 05:16:06;;;;;;;17.33;6.77;;;;;;;11.64;100.00;102519.50;5049613;28;20029;-89
2023/05/17 05:18:32;;;;;;;16.35;4.97;;;;;;;12.17;100.00;102508.34;5051101;28;20112;-89
2023/05/17 05:20:58;;;;;;;16.70;5.38;;;;;;;12.64;100.00;102513.06;5050399;28;20112;-90
2023/05/17 05:23:23;;;;;;;19.47;5.30;;;;;;;12.99;100.00;102523.06;5052147;28;20029;-92
2023/05/17 05:25:49;;;;;;;17.27;4.70;;;;;;;13.26;100.00;102522.59;5047938;28;20029;-91
2023/05/17 05:28:14;;;;;;;20.53;4.60;;;;;;;13.31;100.00;102518.16;5053243;28;20388;-92
2023/05/17 05:30:39;;;;;;;17.40;4.37;;;;;;;13.45;99.37;102524.16;5053221;28;20017;-91
2023/05/17 05:33:05;;;;;;;12.57;3.90;;;;;;;13.52;99.09;102533.97;5050301;28;20103;-90
2023/05/17 05:35:30;;;;;;;22.27;4.50;;;;;;;13.65;98.48;102536.44;5044941;28;20062;-90
2023/05/17 05:37:56;;;;;;;12.37;4.10;;;;;;;13.03;97.85;102537.69;5047834;28;20112;-89
2023/05/17 05:40:22;;;;;;;21.20;4.65;;;;;;;12.29;100.00;102535.28;5045868;28;20025;-91
2023/05/17 05:42:47;;;;;;;17.37;4.50;;;;;;;11.58;100.00;102535.69;5051592;28;20167;-89
2023/05/17 05:45:13;;;;;;;15.17;4.40;;;;;;;11.23;100.00;102537.03;5049834;28;20052;-90
2023/05/17 05:47:38;;;;;;;15.43;4.72;;;;;;;11.24;100.00;102536.00;5051055;28;20069;-89
2023/05/17 05:50:05;;;;;;;22.37;4.90;;;;;;;11.32;100.00;102542.94;5051823;28;20102;-89
2023/05/17 05:52:30;;;;;;;19.30;4.95;;;;;;;11.20;100.00;102535.63;5042877;28;20025;-90
2023/05/17 05:54:55;;;;;;;16.37;4.27;;;;;;;11.22;100.00;102540.75;5050053;28;20112;-92
2023/05/17 05:57:21;;;;;;;23.43;4.50;;;;;;;11.03;100.00;102540.69;5049254;28;20064;-91
2023/05/17 05:59:46;;;;;;;16.90;4.27;;;;;;;10.78;100.00;102538.00;5045254;28;20029;-90
2023/05/17 06:02:11;;;;;;;20.57;4.20;;;;;;;10.71;100.00;102542.59;5052333;28;20029;-92
2023/05/17 06:04:37;;;;;;;22.65;4.60;;;;;;;10.69;100.00;102550.84;5052155;28;20152;-92
2023/05/17 06:07:02;;;;;;;20.00;4.23;;;;;;;10.52;100.00;102541.69;5050514;28;20075;-90
2023/05/17 06:09:28;;;;;;;23.07;4.03;;;;;;;10.48;100.00;102556.53;5047652;28;20045;-89
2023/05/17 06:11:53;;;;;;;14.37;4.03;;;;;;;10.36;100.00;102551.00;5048890;28;20294;-91
2023/05/17 06:14:18;;;;;;;17.83;3.63;;;;;;;10.30;100.00;102561.56;5052096;28;20082;-91
2023/05/17 06:16:44;;;;;;;17.23;3.37;;;;;;;10.29;100.00;102564.44;5048845;28;20357;-91
2023/05/17 06:19:09;;;;;;;17.33;2.83;;;;;;;10.23;100.00;102565.28;5046921;28;20024;-89
2023/05/17 06:21:35;;;;;;;14.48;3.15;;;;;;;10.19;100.00;102567.56;5050294;28;20025;-89
2023/05/17 06:24:03;;;;;;;12.77;2.90;;;;;;;10.23;100.00;102578.66;5047481;28;20063;-89
2023/05/17 06:26:29;;;;;;;12.45;2.72;;;;;;;10.30;100.00;102583.00;5045331;28;20113;-89
2023/05/17 06:28:54;;;;;;;13.53;2.57;;;;;;;10.32;100.00;102585.44;5044980;28;20566;-92
2023/05/17 06:31:20;;;;;;;16.20;2.70;;;;;;;10.36;100.00;102592.03;5044081;28;20028;-92
2023/05/17 06:33:45;;;;;;;15.35;2.53;;;;;;;10.37;100.00;102582.97;5054218;28;20029;-92
2023/05/17 06:36:10;;;;;;;15.87;2.73;;;;;;;10.51;100.00;102583.72;5056802;28;20047;-93
2023/05/17 06:38:36;;;;;;;13.10;2.20;;;;;;;10.60;97.38;102586.97;5057442;28;20084;-94
2023/05/17 06:41:02;;;;;;;14.95;2.67;;;;;;;10.76;97.00;102580.31;5057505;28;20029;-92
2023/05/17 06:43:27;;;;;;;13.43;2.03;;;;;;;10.89;91.62;102588.25;5058433;28;20043;-92
2023/05/17 06:45:52;;;;;;;13.60;2.23;;;;;;;11.05;92.54;102586.91;5055202;28;20032;-92
2023/05/17 06:48:21;;;;;;;12.43;2.30;;;;;;;11.24;92.66;102588.81;5056041;28;20480;-92
2023/05/17 06:50:58;;;;;;;12.73;2.10;;;;;;;11.03;89.36;102570.22;5047703;28;20345;-93
2023/05/17 06:53:25;;;;;;;17.50;2.50;;;;;;;11.09;87.29;102583.81;5057897;28;20071;-92
2023/05/17 06:55:53;;;;;;;13.00;2.25;;;;;;;11.15;87.65;102597.16;5052499;28;20028;-93
2023/05/17 06:58:18;;;;;;;9.57;2.00;;;;;;;11.20;86.25;102588.44;5054258;28;20060;-91
2023/05/17 07:00:43;;;;;;;12.97;2.07;;;;;;;11.33;85.07;102591.00;5041256;28;20049;-92
2023/05/17 07:03:09;;;;;;;10.52;2.20;;;;;;;11.28;85.07;102595.41;5047192;28;20021;-91
2023/05/17 07:05:35;;;;;;;14.07;1.67;;;;;;;11.30;83.15;102604.91;5055786;28;20044;-92
2023/05/17 07:08:00;;;;;;;22.92;2.35;;;;;;;11.16;82.62;102584.56;5057617;28;20028;-93
2023/05/17 07:10:26;;;;;;;12.87;1.80;;;;;;;11.40;82.16;102587.47;5040182;28;20025;-93
2023/05/17 07:12:52;;;;;;;11.80;2.20;;;;;;;11.59;80.17;102594.50;5040855;28;20108;-91
2023/05/17 07:15:17;;;;;;;13.07;2.17;;;;;;;11.58;80.88;102581.31;5023562;28;20025;-92
2023/05/17 07:17:43;;;;;;;14.57;2.10;;;;;;;11.54;75.02;102602.41;5054896;28;20048;-92
2023/05/17 07:20:08;;;;;;;18.70;2.20;;;;;;;11.35;77.58;102593.50;5054742;28;20041;-90
2023/05/17 07:22:35;;;;;;;15.43;2.43;;;;;;;11.38;79.03;102600.28;5039872;28;20040;-92
2023/05/17 07:25:07;;;;;;;16.58;2.78;;;;;;;11.19;78.23;102589.50;5058408;28;20028;-93
2023/05/17 07:27:37;;;;;;;14.38;2.10;;;;;;;11.27;77.45;102610.69;5037637;28;20041;-90
2023/05/17 07:30:03;;;;;;;12.95;2.15;;;;;;;11.11;75.95;102604.00;5053030;28;20056;-90
2023/05/17 07:32:28;;;;;;;13.32;1.85;;;;;;;10.97;76.75;102605.94;5061040;28;20036;-91
2023/05/17 07:34:53;;;;;;;13.73;2.10;;;;;;;10.87;76.79;102621.69;5066098;28;20025;-92
2023/05/17 07:37:19;;;;;;;13.80;2.07;;;;;;;10.91;77.93;102620.22;5058177;28;20669;-91
2023/05/17 07:39:44;;;;;;;11.07;2.60;;;;;;;11.02;76.19;102629.47;5070910;28;20017;-90
2023/05/17 07:42:10;;;;;;;12.07;1.80;;;;;;;10.98;75.85;102625.56;5066457;28;20021;-90
2023/05/17 07:44:35;;;;;;;21.23;2.03;;;;;;;11.04;75.91;102627.38;5052683;28;20144;-91
2023/05/17 07:47:00;;;;;;;9.33;2.00;;;;;;;11.18;77.40;102623.56;5067904;28;20036;-92
2023/05/17 07:49:26;;;;;;;9.60;1.67;;;;;;;11.63;73.80;102633.31;5068441;28;20032;-92
2023/05/17 07:51:51;;;;;;;10.23;1.40;;;;;;;11.78;71.99;102635.63;5060994;28;20476;-91
2023/05/17 07:54:25;;;;;;;12.80;1.93;;;;;;;11.72;72.14;102639.22;5054537;28;20800;-93
2023/05/17 07:56:54;;;;;;;14.90;2.45;;;;;;;11.52;70.29;102640.22;5056689;28;20047;-91
2023/05/17 07:59:20;;;;;;;14.98;1.88;;;;;;;11.39;70.65;102643.03;5056651;28;20029;-92
2023/05/17 08:01:45;;;;;;;12.13;1.83;;;;;;;11.51;72.02;102635.88;5057032;28;20387;-92
2023/05/17 08:04:12;;;;;;;12.13;2.00;;;;;;;11.89;70.29;102641.34;5056863;28;20100;-93
2023/05/17 08:06:42;;;;;;;11.50;1.90;;;;;;;12.31;67.66;102651.44;5053917;28;20021;-90
2023/05/17 08:09:07;;;;;;;12.35;1.73;;;;;;;12.79;67.13;102647.94;5052042;28;20044;-90
2023/05/17 08:11:33;;;;;;;13.03;1.70;;;;;;;13.40;64.88;102645.19;5050355;28;20029;-89
2023/05/17 08:13:59;;;;;;;10.93;1.77;;;;;;;13.76;63.33;102642.53;5052551;28;20025;-89
2023/05/17 08:16:25;;;;;;;9.60;1.67;;;;;;;13.76;61.74;102653.31;5051798;28;20024;-89
2023/05/17 08:18:50;;;;;;;11.03;1.73;;;;;;;13.69;61.44;102642.66;5050360;28;20484;-89
2023/05/17 08:21:16;;;;;;;13.13;1.85;;;;;;;13.47;61.13;102650.47;5051620;28;20021;-89
2023/05/17 08:23:42;;;;;;;17.30;1.90;;;;;;;12.99;62.39;102642.28;5051876;28;20029;-89
2023/05/17 08:26:08;;;;;;;15.88;2.80;;;;;;;12.71;64.55;102653.66;5051509;28;20488;-88
2023/05/17 08:28:33;;;;;;;11.33;2.03;;;;;;;12.71;65.51;102654.44;5051462;28;20078;-91
2023/05/17 08:30:58;;;;;;;10.50;1.83;;;;;;;12.84;64.96;102660.72;5034771;28;20064;-92
2023/05/17 08:33:24;;;;;;;11.43;1.90;;;;;;;13.02;60.61;102654.44;5043620;28;21630;-90
2023/05/17 08:35:53;;;;;;;11.02;2.08;;;;;;;13.41;60.84;102646.84;5050534;28;20039;-90
2023/05/17 08:38:19;;;;;;;10.48;1.85;;;;;;;13.79;58.59;102652.81;5033862;28;20480;-91
2023/05/17 08:40:52;;;;;;;10.82;1.83;;;;;;;13.94;58.90;102652.34;5053786;28;20021;-90
2023/05/17 08:43:18;;;;;;;10.75;2.10;;;;;;;14.14;56.39;102653.84;5052205;28;20551;-92
2023/05/17 08:45:44;;;;;;;7.50;1.77;;;;;;;14.39;55.68;102649.00;5070271;28;20046;-92
2023/05/17 08:48:10;;;;;;;6.97;1.77;;;;;;;14.48;55.54;102654.00;5087997;28;20318;-91
2023/05/17 08:50:37;;;;;;;11.88;1.95;;;;;;;13.99;54.90;102667.81;5089850;28;20032;-90
2023/05/17 08:53:03;;;;;;;9.98;1.70;;;;;;;13.56;54.13;102659.03;5089397;28;20044;-90
2023/05/17 08:55:31;;;;;;;13.07;2.13;;;;;;;13.26;55.75;102660.69;5071558;28;20029;-90
2023/05/17 08:57:58;;;;;;;7.53;1.38;;;;;;;13.27;58.13;102653.47;5073069;28;20040;-91
2023/05/17 09:00:25;;;;;;;9.00;1.77;;;;;;;13.77;57.33;102665.72;5075029;28;20017;-90
2023/05/17 09:02:50;;;;;;;8.07;1.55;;;;;;;14.04;55.39;102654.44;5075265;28;20021;-91
2023/05/17 09:05:16;;;;;;;8.77;1.77;;;;;;;14.08;53.21;102666.41;5068196;28;20059;-91
2023/05/17 09:07:41;;;;;;;7.53;1.63;;;;;;;14.28;56.44;102660.59;5061136;28;20021;-90
2023/05/17 09:10:07;;;;;;;9.15;1.40;;;;;;;14.35;53.62;102666.69;5038002;28;20422;-92
2023/05/17 09:12:36;;;;;;;11.43;1.90;;;;;;;14.24;52.41;102648.69;5055277;28;20031;-90
2023/05/17 09:15:30;;;;;;;11.53;2.03;;;;;;;14.36;55.22;102660.25;5054061;28;20024;-91
2023/05/17 09:17:57;;;;;;;8.17;1.90;;;;;;;14.65;52.23;102671.06;5033407;28;20287;-91
2023/05/17 09:20:33;;;;;;;9.45;1.80;;;;;;;15.02;51.92;102658.25;5054478;28;20017;-90
2023/05/17 09:23:00;;;;;;;16.42;2.33;;;;;;;15.76;51.89;102659.97;5053094;28;20021;-91
2023/05/17 09:25:27;;;;;;;9.73;1.80;;;;;;;16.08;49.97;102651.25;5053017;28;20029;-91
2023/05/17 09:28:08;;;;;;;10.15;4.28;;;;;;;15.96;49.13;102666.75;5054989;28;20025;-92
2023/05/17 09:30:37;;;;;;;11.68;1.98;;;;;;;15.32;49.99;102666.06;5045968;28;20132;-95
2023/05/17 09:33:07;;;;;;;10.60;2.17;;;;;;;14.73;49.92;102658.28;5046199;28;20406;-96
2023/05/17 09:35:37;;;;;;;37.08;2.97;;;;;;;14.76;52.39;102665.91;5063349;28;20523;-96
2023/05/17 09:38:12;;;;;;;14.10;1.90;;;;;;;15.31;52.65;102669.81;5065077;28;20037;-96
2023/05/17 09:40:39;;;;;;;8.57;1.40;;;;;;;15.83;48.49;102655.22;5063814;28;20036;-93
2023/05/17 09:43:05;;;;;;;14.27;1.83;;;;;;;15.96;48.67;102659.50;5059533;28;20268;-93
2023/05/17 09:45:35;;;;;;;10.48;2.30;;;;;;;15.41;51.10;102659.19;5054314;28;20043;-93
2023/05/17 09:48:17;;;;;;;8.07;1.83;;;;;;;15.25;52.11;102657.28;5059666;28;20684;-96
2023/05/17 09:50:50;;;;;;;10.30;2.13;;;;;;;15.22;51.49;102653.22;5058722;28;20035;-92
2023/05/17 09:53:30;;;;;;;4.55;1.42;;;;;;;15.47;52.33;102654.69;5039432;28;20033;-94
2023/05/17 09:56:00;;;;;;;12.73;1.63;;;;;;;15.58;48.63;102661.88;5053824;28;20060;-93
2023/05/17 09:58:27;;;;;;;35.40;2.85;;;;;;;15.89;48.52;102656.94;5059269;28;20037;-86
2023/05/17 10:00:58;;;;;;;11.15;1.92;;;;;;;16.45;47.63;102660.63;5056729;28;20025;-94
2023/05/17 10:03:25;;;;;;;16.17;2.30;;;;;;;16.42;45.92;102664.66;5061949;28;20029;-96
2023/05/17 10:05:52;;;;;;;32.83;2.90;;;;;;;16.34;46.49;102659.69;5060946;28;20295;-92
2023/05/17 10:08:22;;;;;;;15.70;1.90;;;;;;;16.17;48.12;102665.13;5042404;28;20236;-93
2023/05/17 10:10:50;;;;;;;13.55;1.48;;;;;;;15.86;45.89;102651.22;5059176;28;20025;-95
2023/05/17 10:13:19;;;;;;;10.55;1.77;;;;;;;15.60;47.43;102664.34;5059735;28;20158;-92
2023/05/17 10:15:46;;;;;;;9.75;1.50;;;;;;;16.01;47.21;102669.53;5056459;28;20033;-96
2023/05/17 10:18:12;;;;;;;7.28;1.75;;;;;;;16.35;47.76;102659.41;5042435;28;20025;-93
2023/05/17 10:20:40;;;;;;;11.95;2.13;;;;;;;17.00;46.28;102666.88;5065249;28;20108;-93
2023/05/17 10:23:10;;;;;;;28.30;10.45;;;;;;;16.80;44.56;102668.28;5064847;28;20028;-93
2023/05/17 10:25:36;;;;;;;12.15;2.67;;;;;;;16.34;46.78;102670.50;5067678;28;20118;-92
2023/05/17 10:30:37;;;;;;;11.30;1.63;;;;;;;16.13;49.04;102664.03;5126599;23;20068;-92
2023/05/17 10:33:03;;;;;;;8.63;1.83;;;;;;;16.53;46.11;102659.34;5058366;28;20029;-93
2023/05/17 10:35:31;;;;;;;11.88;1.85;;;;;;;16.64;44.68;102671.91;5089066;28;20021;-95
2023/05/17 10:37:56;;;;;;;7.38;1.60;;;;;;;16.27;43.95;102662.59;5087824;28;20021;-92
2023/05/17 10:40:22;;;;;;;15.53;2.10;;;;;;;16.28;46.78;102666.09;5083871;28;20025;-95
2023/05/17 10:42:52;;;;;;;15.82;2.05;;;;;;;16.00;44.80;102652.50;5078418;28;20056;-93
2023/05/17 10:45:24;;;;;;;11.38;1.55;;;;;;;16.25;44.53;102656.59;5048105;28;20048;-91
2023/05/17 10:47:53;;;;;;;23.67;2.10;;;;;;;16.55;45.39;102649.09;5073274;28;20039;-92
2023/05/17 10:50:25;;;;;;;6.60;1.40;;;;;;;16.50;46.45;102647.16;5072138;28;20754;-92
2023/05/17 10:52:54;;;;;;;14.23;1.63;;;;;;;16.38;44.92;102650.00;5063267;28;20028;-91
2023/05/17 10:55:23;;;;;;;31.10;2.85;;;;;;;16.22;45.74;102643.56;5078460;28;20025;-90
2023/05/17 10:58:15;;;;;;;7.57;1.60;;;;;;;16.30;44.94;102643.16;5065796;28;20021;-93
2023/05/17 11:00:43;;;;;;;7.45;1.30;;;;;;;16.16;43.16;102634.59;5080704;28;20029;-90
2023/05/17 11:03:18;;;;;;;10.40;1.50;;;;;;;16.39;43.80;102634.56;5081328;28;20066;-93
2023/05/17 11:06:11;;;;;;;31.60;11.77;;;;;;;16.63;45.95;102635.94;5079779;28;20064;-92
2023/05/17 11:08:42;;;;;;;16.83;5.22;;;;;;;16.77;42.08;102639.06;5073644;28;20044;-94
2023/05/17 11:11:09;;;;;;;17.13;1.95;;;;;;;16.70;41.68;102637.63;5070702;28;20609;-92
2023/05/17 11:13:51;;;;;;;6.43;1.20;;;;;;;16.64;41.14;102634.84;5073888;28;20040;-96
2023/05/17 11:16:24;;;;;;;7.17;1.47;;;;;;;16.74;41.46;102631.44;5070216;28;20282;-93
2023/05/17 11:18:54;;;;;;;5.60;1.23;;;;;;;16.98;42.22;102633.84;5056442;28;20077;-91
2023/05/17 11:21:27;;;;;;;6.00;1.65;;;;;;;17.07;40.81;102626.09;5081841;28;20012;-92
2023/05/17 11:23:57;;;;;;;6.20;1.70;;;;;;;17.10;41.17;102636.38;5089793;28;20028;-92
2023/05/17 11:26:35;;;;;;;7.20;1.80;;;;;;;16.74;42.44;102638.72;5067647;28;20025;-90
2023/05/17 11:29:05;;;;;;;4.50;1.50;;;;;;;16.50;41.23;102626.31;5078226;28;20054;-89
2023/05/17 11:31:34;;;;;;;8.25;1.10;;;;;;;16.44;38.86;102627.31;5058651;28;20027;-89
2023/05/17 11:34:04;;;;;;;5.85;1.60;;;;;;;16.65;40.58;102622.97;5075739;28;20031;-89
2023/05/17 11:36:31;;;;;;;8.20;1.80;;;;;;;16.87;41.62;102640.22;5080633;28;20695;-88
2023/05/17 11:39:13;;;;;;;4.37;1.20;;;;;;;17.14;41.89;102626.66;5076861;28;20027;-90
2023/05/17 11:41:46;;;;;;;6.23;1.47;;;;;;;17.29;40.56;102623.28;5080309;28;20294;-89
2023/05/17 11:44:12;;;;;;;3.33;1.27;;;;;;;17.26;38.05;102619.16;5068038;28;20449;-90
2023/05/17 11:46:39;;;;;;;4.68;1.60;;;;;;;17.16;40.74;102629.94;5071274;28;20101;-90
2023/05/17 11:49:08;;;;;;;9.13;1.38;;;;;;;17.07;39.53;102626.88;5070838;28;20041;-88
2023/05/17 11:51:33;;;;;;;4.45;1.20;;;;;;;17.08;40.78;102628.53;5071884;28;20036;-88
2023/05/17 11:54:02;;;;;;;8.70;1.30;;;;;;;17.25;41.26;102616.72;5050993;28;20376;-88
2023/05/17 11:56:34;;;;;;;7.10;1.47;;;;;;;17.28;41.24;102620.81;5056266;28;20043;-89
2023/05/17 11:59:00;;;;;;;6.43;1.80;;;;;;;17.36;40.93;102620.34;5072794;28;20048;-89
2023/05/17 12:01:25;;;;;;;5.75;1.80;;;;;;;17.46;39.66;102627.72;5072173;28;20102;-90
2023/05/17 12:04:00;;;;;;;7.87;1.80;;;;;;;17.58;39.30;102622.91;5072858;28;20087;-90
2023/05/17 12:06:27;;;;;;;5.38;1.45;;;;;;;17.44;38.59;102627.16;5070579;28;20463;-88
2023/05/17 12:08:53;;;;;;;7.15;1.45;;;;;;;17.35;39.65;102630.34;5080201;28;20024;-90
2023/05/17 12:11:19;;;;;;;7.50;1.80;;;;;;;17.29;39.72;102620.56;5072854;28;20444;-89
2023/05/17 12:13:47;;;;;;;7.22;1.95;;;;;;;17.48;40.94;102618.25;5080142;28;20101;-90
2023/05/17 12:16:14;;;;;;;4.60;1.30;;;;;;;17.45;37.50;102620.66;5056869;28;20044;-91
2023/05/17 12:18:41;;;;;;;6.87;1.50;;;;;;;17.38;39.25;102621.69;5083661;28;20294;-90
2023/05/17 12:21:08;;;;;;;3.78;1.23;;;;;;;17.47;39.99;102629.34;5081573;28;20054;-91
2023/05/17 12:23:39;;;;;;;6.05;1.50;;;;;;;17.18;38.83;102618.84;5073334;28;20024;-91
2023/05/17 12:26:13;;;;;;;7.82;1.50;;;;;;;17.25;38.88;102614.03;5069669;28;20029;-90